createdAt,value
2016-05-11T00:00:29.512Z,999.92
2016-05-11T00:01:29.358Z,999.93
2016-05-11T00:02:29.486Z,999.91
2016-05-11T00:03:29.426Z,999.9
2016-05-11T00:04:29.256Z,999.94
2016-05-11T00:05:29.338Z,999.92
2016-05-11T00:06:29.450Z,999.94
2016-05-11T00:07:29.186Z,999.98
2016-05-11T00:08:29.175Z,999.94
2016-05-11T00:09:29.567Z,999.91
2016-05-11T00:10:29.116Z,999.91
2016-05-11T00:11:29.120Z,999.92
2016-05-11T00:12:29.107Z,999.88
2016-05-11T00:13:29.062Z,999.88
2016-05-11T00:14:29.050Z,999.87
2016-05-11T00:15:29.068Z,999.87
2016-05-11T00:16:29.008Z,999.89
2016-05-11T00:17:29.135Z,999.92
2016-05-11T00:18:29.357Z,999.93
2016-05-11T00:19:28.938Z,999.87
2016-05-11T00:20:28.940Z,999.89
2016-05-11T00:21:28.912Z,999.87
2016-05-11T00:22:28.884Z,999.88
2016-05-11T00:23:29.120Z,999.85
2016-05-11T00:24:28.858Z,999.87
2016-05-11T00:25:28.860Z,999.89
2016-05-11T00:26:29.129Z,999.88
2016-05-11T00:27:28.804Z,999.88
2016-05-11T00:28:28.790Z,999.85
2016-05-11T00:29:28.762Z,999.88
2016-05-11T00:30:29.311Z,999.86
2016-05-11T00:31:28.829Z,999.85
2016-05-11T00:32:28.707Z,999.87
2016-05-11T00:33:28.695Z,999.84
2016-05-11T00:34:28.744Z,999.82
2016-05-11T00:35:28.637Z,999.81
2016-05-11T00:36:28.640Z,999.84
2016-05-11T00:37:29.142Z,999.81
2016-05-11T00:38:28.598Z,999.81
2016-05-11T00:39:28.633Z,999.82
2016-05-11T00:40:28.572Z,999.79
2016-05-11T00:41:28.544Z,999.81
2016-05-11T00:42:28.515Z,999.8
2016-05-11T00:43:28.503Z,999.79
2016-05-11T00:44:28.474Z,999.81
2016-05-11T00:45:28.586Z,999.87
2016-05-11T00:46:28.449Z,999.82
2016-05-11T00:47:28.419Z,999.87
2016-05-11T00:48:28.407Z,999.89
2016-05-11T00:49:28.378Z,999.86
2016-05-11T00:50:28.380Z,999.86
2016-05-11T00:51:28.696Z,999.86
2016-05-11T00:52:28.339Z,999.89
2016-05-11T00:53:28.310Z,999.87
2016-05-11T00:54:28.735Z,999.88
2016-05-11T00:55:28.285Z,999.85
2016-05-11T00:56:28.256Z,999.88
2016-05-11T00:57:28.243Z,999.88
2016-05-11T00:58:28.199Z,999.87
2016-05-11T00:59:28.201Z,999.86
2016-05-11T01:00:28.282Z,999.83
2016-05-11T01:01:28.175Z,999.85
2016-05-11T01:02:28.147Z,999.83
2016-05-11T01:03:28.103Z,999.83
2016-05-11T01:04:28.106Z,999.83
2016-05-11T01:05:28.078Z,999.78
2016-05-11T01:06:28.064Z,999.8
2016-05-11T01:07:28.192Z,999.78
2016-05-11T01:08:28.007Z,999.79
2016-05-11T01:09:28.010Z,999.79
2016-05-11T01:10:28.044Z,999.75
2016-05-11T01:11:28.031Z,999.77
2016-05-11T01:12:27.956Z,999.78
2016-05-11T01:13:27.942Z,999.77
2016-05-11T01:14:27.961Z,999.78
2016-05-11T01:15:27.885Z,999.79
2016-05-11T01:16:27.873Z,999.78
2016-05-11T01:17:28.046Z,999.77
2016-05-11T01:18:27.830Z,999.77
2016-05-11T01:19:27.818Z,999.77
2016-05-11T01:20:27.790Z,999.77
2016-05-11T01:21:28.183Z,999.78
2016-05-11T01:22:27.748Z,999.76
2016-05-11T01:23:27.766Z,999.76
2016-05-11T01:24:28.050Z,999.76
2016-05-11T01:25:27.694Z,999.77
2016-05-11T01:26:27.681Z,999.75
2016-05-11T01:27:27.652Z,999.7
2016-05-11T01:28:27.655Z,999.73
2016-05-11T01:29:27.610Z,999.72
2016-05-11T01:30:27.612Z,999.67
2016-05-11T01:31:27.584Z,999.71
2016-05-11T01:32:27.573Z,999.69
2016-05-11T01:33:27.528Z,999.71
2016-05-11T01:34:27.546Z,999.7
2016-05-11T01:35:27.501Z,999.68
2016-05-11T01:36:27.489Z,999.69
2016-05-11T01:37:27.491Z,999.68
2016-05-11T01:38:27.479Z,999.67
2016-05-11T01:39:27.434Z,999.68
2016-05-11T01:40:27.405Z,999.7
2016-05-11T01:41:27.378Z,999.71
2016-05-11T01:42:27.458Z,999.7
2016-05-11T01:43:27.336Z,999.71
2016-05-11T01:44:27.339Z,999.71
2016-05-11T01:45:27.325Z,999.73
2016-05-11T01:46:27.296Z,999.72
2016-05-11T01:47:27.268Z,999.76
2016-05-11T01:48:27.256Z,999.77
2016-05-11T01:49:27.243Z,999.74
2016-05-11T01:50:27.214Z,999.79
2016-05-11T01:51:27.201Z,999.8
2016-05-11T01:52:27.172Z,999.75
2016-05-11T01:53:27.175Z,999.77
2016-05-11T01:54:27.131Z,999.79
2016-05-11T01:55:27.118Z,999.77
2016-05-11T01:56:27.105Z,999.76
2016-05-11T01:57:27.077Z,999.79
2016-05-11T01:58:27.063Z,999.74
2016-05-11T01:59:27.035Z,999.74
2016-05-11T02:00:27.037Z,999.75
2016-05-11T02:01:27.493Z,999.75
2016-05-11T02:02:26.980Z,999.77
2016-05-11T02:03:26.999Z,999.76
2016-05-11T02:04:27.346Z,999.75
2016-05-11T02:05:26.957Z,999.71
2016-05-11T02:06:26.913Z,999.69
2016-05-11T02:07:26.900Z,999.67
2016-05-11T02:08:26.872Z,999.67
2016-05-11T02:09:26.842Z,999.65
2016-05-11T02:10:26.827Z,999.67
2016-05-11T02:11:27.020Z,999.64
2016-05-11T02:12:26.848Z,999.65
2016-05-11T02:13:26.773Z,999.62
2016-05-11T02:14:26.760Z,999.64
2016-05-11T02:15:26.731Z,999.62
2016-05-11T02:16:26.703Z,999.66
2016-05-11T02:17:26.691Z,999.62
2016-05-11T02:18:26.771Z,999.64
2016-05-11T02:19:26.946Z,999.6
2016-05-11T02:20:26.777Z,999.62
2016-05-11T02:21:26.732Z,999.62
2016-05-11T02:22:26.625Z,999.64
2016-05-11T02:23:26.582Z,999.61
2016-05-11T02:24:26.584Z,999.62
2016-05-11T02:25:26.555Z,999.59
2016-05-11T02:26:26.698Z,999.65
2016-05-11T02:27:26.498Z,999.61
2016-05-11T02:28:26.485Z,999.6
2016-05-11T02:29:26.473Z,999.61
2016-05-11T02:30:26.443Z,999.63
2016-05-11T02:31:26.399Z,999.63
2016-05-11T02:32:26.418Z,999.66
2016-05-11T02:33:26.390Z,999.68
2016-05-11T02:34:26.345Z,999.69
2016-05-11T02:35:26.332Z,999.66
2016-05-11T02:36:26.334Z,999.66
2016-05-11T02:37:26.353Z,999.71
2016-05-11T02:38:26.528Z,999.68
2016-05-11T02:39:26.281Z,999.66
2016-05-11T02:40:26.253Z,999.64
2016-05-11T02:41:26.223Z,999.63
2016-05-11T02:42:26.195Z,999.65
2016-05-11T02:43:26.181Z,999.62
2016-05-11T02:44:26.169Z,999.63
2016-05-11T02:45:26.140Z,999.62
2016-05-11T02:46:26.190Z,999.6
2016-05-11T02:47:26.114Z,999.63
2016-05-11T02:48:26.102Z,999.63
2016-05-11T02:49:26.073Z,999.64
2016-05-11T02:50:26.044Z,999.63
2016-05-11T02:51:26.047Z,999.64
2016-05-11T02:52:26.003Z,999.6
2016-05-11T02:53:25.990Z,999.61
2016-05-11T02:54:25.977Z,999.61
2016-05-11T02:55:25.949Z,999.63
2016-05-11T02:56:25.951Z,999.64
2016-05-11T02:57:25.907Z,999.65
2016-05-11T02:58:25.893Z,999.61
2016-05-11T02:59:25.866Z,999.63
2016-05-11T03:00:25.916Z,999.62
2016-05-11T03:01:25.840Z,999.62
2016-05-11T03:02:25.811Z,999.61
2016-05-11T03:03:25.798Z,999.64
2016-05-11T03:04:25.784Z,999.61
2016-05-11T03:05:25.772Z,999.57
2016-05-11T03:06:25.729Z,999.56
2016-05-11T03:07:25.731Z,999.58
2016-05-11T03:08:25.703Z,999.58
2016-05-11T03:09:25.673Z,999.56
2016-05-11T03:10:25.661Z,999.58
2016-05-11T03:11:25.663Z,999.5
2016-05-11T03:12:25.619Z,999.54
2016-05-11T03:13:25.591Z,999.54
2016-05-11T03:14:25.594Z,999.56
2016-05-11T03:15:26.049Z,999.55
2016-05-11T03:16:25.520Z,999.54
2016-05-11T03:17:25.539Z,999.54
2016-05-11T03:18:25.511Z,999.55
2016-05-11T03:19:25.466Z,999.55
2016-05-11T03:20:25.453Z,999.52
2016-05-11T03:21:25.440Z,999.5
2016-05-11T03:22:25.443Z,999.45
2016-05-11T03:23:25.539Z,999.49
2016-05-11T03:24:25.432Z,999.49
2016-05-11T03:25:25.389Z,999.47
2016-05-11T03:26:25.360Z,999.46
2016-05-11T03:27:25.332Z,999.45
2016-05-11T03:28:25.303Z,999.43
2016-05-11T03:29:25.399Z,999.4
2016-05-11T03:30:25.448Z,999.41
2016-05-11T03:31:25.380Z,999.41
2016-05-11T03:32:25.250Z,999.37
2016-05-11T03:33:25.308Z,999.36
2016-05-11T03:34:25.304Z,999.37
2016-05-11T03:35:25.471Z,999.36
2016-05-11T03:36:25.712Z,999.36
2016-05-11T03:37:25.338Z,999.34
2016-05-11T03:38:25.324Z,999.34
2016-05-11T03:39:25.325Z,999.34
2016-05-11T03:40:25.311Z,999.36
2016-05-11T03:41:25.639Z,999.32
2016-05-11T03:42:25.319Z,999.31
2016-05-11T03:43:25.294Z,999.28
2016-05-11T03:44:25.287Z,999.31
2016-05-11T03:45:25.513Z,999.31
2016-05-11T03:46:25.270Z,999.3
2016-05-11T03:47:25.213Z,999.31
2016-05-11T03:48:25.858Z,999.33
2016-05-11T03:49:25.221Z,999.27
2016-05-11T03:50:25.163Z,999.29
2016-05-11T03:51:25.153Z,999.3
2016-05-11T03:52:25.124Z,999.27
2016-05-11T03:53:25.112Z,999.3
2016-05-11T03:54:25.084Z,999.32
2016-05-11T03:55:25.102Z,999.35
2016-05-11T03:57:25.061Z,999.32
2016-05-11T03:58:25.018Z,999.31
2016-05-11T03:59:25.052Z,999.31
2016-05-11T04:00:25.305Z,999.34
2016-05-11T04:01:28.262Z,999.3
2016-05-11T04:02:25.045Z,999.33
2016-05-11T04:03:24.954Z,999.31
2016-05-11T04:04:24.926Z,999.32
2016-05-11T04:05:25.600Z,999.31
2016-05-11T04:06:24.961Z,999.3
2016-05-11T04:07:24.964Z,999.3
2016-05-11T04:08:25.468Z,999.29
2016-05-11T04:09:25.142Z,999.34
2016-05-11T04:10:24.864Z,999.3
2016-05-11T04:11:24.741Z,999.34
2016-05-11T04:12:24.743Z,999.3
2016-05-11T04:13:24.715Z,999.28
2016-05-11T04:14:24.781Z,999.3
2016-05-11T04:15:24.752Z,999.27
2016-05-11T04:16:24.771Z,999.23
2016-05-11T04:17:24.804Z,999.24
2016-05-11T04:18:24.948Z,999.23
2016-05-11T04:19:24.982Z,999.21
2016-05-11T04:20:25.374Z,999.19
2016-05-11T04:21:24.971Z,999.18
2016-05-11T04:22:25.052Z,999.23
2016-05-11T04:23:24.773Z,999.19
2016-05-11T04:24:24.854Z,999.18
2016-05-11T04:25:27.748Z,999.18
2016-05-11T04:26:25.063Z,999.19
2016-05-11T04:27:25.082Z,999.16
2016-05-11T04:28:25.178Z,999.14
2016-05-11T04:29:24.790Z,999.18
2016-05-11T04:31:24.811Z,999.17
2016-05-11T04:32:25.141Z,999.2
2016-05-11T04:33:24.754Z,999.17
2016-05-11T04:34:25.287Z,999.2
2016-05-11T04:35:25.477Z,999.21
2016-05-11T04:38:24.985Z,999.2
2016-05-11T04:39:25.505Z,999.21
2016-05-11T04:40:24.694Z,999.25
2016-05-11T04:44:24.752Z,999.33
2016-05-11T04:45:24.833Z,999.32
2016-05-11T04:46:24.929Z,999.32
2016-05-11T04:47:25.072Z,999.32
2016-05-11T04:48:24.575Z,999.27
2016-05-11T04:49:24.749Z,999.3
2016-05-11T04:50:24.737Z,999.29
2016-05-11T04:51:24.724Z,999.29
2016-05-11T04:57:25.302Z,999.25
2016-05-11T04:58:26.977Z,999.21
2016-05-11T04:59:25.167Z,999.22
2016-05-11T05:00:24.842Z,999.21
2016-05-11T05:01:24.672Z,999.2
2016-05-11T05:02:23.988Z,999.2
2016-05-11T05:03:24.225Z,999.14
2016-05-11T05:04:23.915Z,999.17
2016-05-11T05:05:24.059Z,999.16
2016-05-11T05:06:24.061Z,999.16
2016-05-11T05:07:24.189Z,999.17
2016-05-11T05:08:23.941Z,999.16
2016-05-11T05:09:23.647Z,999.17
2016-05-11T05:10:23.619Z,999.18
2016-05-11T05:11:23.872Z,999.19
2016-05-11T05:12:23.530Z,999.16
2016-05-11T05:13:23.517Z,999.16
2016-05-11T05:14:23.536Z,999.17
2016-05-11T05:15:23.554Z,999.17
2016-05-11T05:16:23.479Z,999.16
2016-05-11T05:17:23.450Z,999.13
2016-05-11T05:18:23.780Z,999.13
2016-05-11T05:19:23.408Z,999.14
2016-05-11T05:20:23.411Z,999.12
2016-05-11T05:21:23.382Z,999.11
2016-05-11T05:22:23.370Z,999.1
2016-05-11T05:23:23.326Z,999.09
2016-05-11T05:24:23.296Z,999.05
2016-05-11T05:25:23.285Z,999.04
2016-05-11T05:26:23.270Z,999.06
2016-05-11T05:27:23.259Z,999.01
2016-05-11T05:28:23.261Z,999.01
2016-05-11T05:29:23.201Z,999.01
2016-05-11T05:30:23.578Z,998.99
2016-05-11T05:31:23.582Z,999
2016-05-11T05:32:23.147Z,998.96
2016-05-11T05:33:23.134Z,998.94
2016-05-11T05:34:23.137Z,998.98
2016-05-11T05:35:23.076Z,998.96
2016-05-11T05:36:23.079Z,998.94
2016-05-11T05:37:23.050Z,998.96
2016-05-11T05:38:23.022Z,998.96
2016-05-11T05:39:23.025Z,998.97
2016-05-11T05:40:23.044Z,998.98
2016-05-11T05:41:22.967Z,999
2016-05-11T05:42:22.955Z,999.01
2016-05-11T05:43:22.927Z,999.02
2016-05-11T05:44:22.913Z,999.01
2016-05-11T05:45:22.900Z,998.98
2016-05-11T05:46:22.872Z,999.02
2016-05-11T05:47:22.843Z,999.05
2016-05-11T05:48:22.830Z,999.07
2016-05-11T05:49:22.818Z,999.07
2016-05-11T05:50:22.789Z,999.04
2016-05-11T05:51:22.791Z,999.05
2016-05-11T05:52:22.763Z,999.04
2016-05-11T05:53:22.718Z,999.06
2016-05-11T05:54:22.721Z,999.11
2016-05-11T05:55:22.709Z,999.09
2016-05-11T05:56:22.664Z,999.11
2016-05-11T05:57:22.714Z,999.09
2016-05-11T05:58:22.701Z,999.17
2016-05-11T05:59:22.625Z,999.12
2016-05-11T06:00:22.612Z,999.12
2016-05-11T06:01:22.568Z,999.17
2016-05-11T06:02:22.555Z,999.13
2016-05-11T06:03:22.543Z,999.14
2016-05-11T06:04:22.514Z,999.17
2016-05-11T06:05:22.486Z,999.19
2016-05-11T06:06:22.503Z,999.21
2016-05-11T06:07:22.569Z,999.2
2016-05-11T06:08:22.837Z,999.2
2016-05-11T06:09:22.433Z,999.2
2016-05-11T06:10:22.406Z,999.14
2016-05-11T06:11:22.377Z,999.12
2016-05-11T06:12:22.363Z,999.11
2016-05-11T06:13:22.336Z,999.1
2016-05-11T06:14:22.431Z,999.06
2016-05-11T06:15:22.325Z,999.06
2016-05-11T06:16:22.296Z,999.02
2016-05-11T06:17:22.299Z,999.05
2016-05-11T06:18:22.255Z,999.04
2016-05-11T06:19:23.413Z,999.01
2016-05-11T06:20:22.230Z,999.01
2016-05-11T06:21:22.293Z,999.05
2016-05-11T06:22:22.171Z,999.04
2016-05-11T06:23:22.269Z,999.04
2016-05-11T06:24:22.115Z,999.04
2016-05-11T06:25:22.164Z,999.07
2016-05-11T06:26:26.792Z,999.08
2016-05-11T06:27:22.076Z,999.15
2016-05-11T06:28:22.079Z,999.11
2016-05-11T06:29:22.035Z,999.13
2016-05-11T06:30:22.037Z,999.1
2016-05-11T06:31:22.149Z,999.11
2016-05-11T06:32:21.979Z,999.1
2016-05-11T06:33:21.968Z,999.08
2016-05-11T06:34:21.954Z,999.07
2016-05-11T06:35:21.926Z,999.12
2016-05-11T06:36:21.913Z,999.09
2016-05-11T06:37:21.884Z,999.12
2016-05-11T06:38:21.871Z,999.17
2016-05-11T06:39:21.858Z,999.2
2016-05-11T06:40:21.845Z,999.18
2016-05-11T06:41:21.833Z,999.22
2016-05-11T06:42:21.803Z,999.23
2016-05-11T06:43:21.775Z,999.25
2016-05-11T06:44:21.871Z,999.27
2016-05-11T06:45:21.733Z,999.24
2016-05-11T06:46:21.706Z,999.21
2016-05-11T06:47:21.708Z,999.21
2016-05-11T06:48:21.664Z,999.25
2016-05-11T06:49:21.650Z,999.27
2016-05-11T06:50:21.638Z,999.24
2016-05-11T06:51:21.641Z,999.25
2016-05-11T06:52:21.846Z,999.27
2016-05-11T06:53:21.583Z,999.24
2016-05-11T06:54:21.586Z,999.22
2016-05-11T06:55:21.557Z,999.23
2016-05-11T06:56:21.529Z,999.22
2016-05-11T06:57:21.516Z,999.17
2016-05-11T06:58:21.487Z,999.17
2016-05-11T06:59:21.474Z,999.15
2016-05-11T07:00:21.477Z,999.16
2016-05-11T07:01:22.105Z,999.12
2016-05-11T07:02:21.421Z,999.15
2016-05-11T07:03:21.391Z,999.16
2016-05-11T07:04:21.379Z,999.19
2016-05-11T07:05:21.366Z,999.19
2016-05-11T07:06:21.806Z,999.21
2016-05-11T07:07:21.324Z,999.21
2016-05-11T07:08:21.530Z,999.18
2016-05-11T07:09:21.298Z,999.15
2016-05-11T07:10:21.254Z,999.14
2016-05-11T07:11:21.225Z,999.08
2016-05-11T07:12:21.212Z,999.06
2016-05-11T07:13:21.324Z,999.06
2016-05-11T07:14:21.422Z,999.05
2016-05-11T07:15:21.549Z,999.05
2016-05-11T07:16:21.161Z,999.05
2016-05-11T07:17:21.116Z,999.06
2016-05-11T07:18:21.103Z,999.05
2016-05-11T07:19:21.106Z,999.07
2016-05-11T07:20:21.280Z,999.06
2016-05-11T07:21:21.049Z,999.04
2016-05-11T07:22:21.036Z,999.06
2016-05-11T07:23:21.007Z,999.03
2016-05-11T07:24:21.010Z,999.03
2016-05-11T07:25:21.044Z,998.99
2016-05-11T07:26:20.968Z,998.99
2016-05-11T07:27:20.941Z,998.98
2016-05-11T07:28:20.913Z,998.96
2016-05-11T07:29:21.102Z,998.96
2016-05-11T07:30:20.885Z,998.99
2016-05-11T07:31:20.935Z,998.94
2016-05-11T07:32:20.860Z,998.96
2016-05-11T07:33:20.815Z,998.98
2016-05-11T07:34:20.803Z,999
2016-05-11T07:35:20.806Z,998.98
2016-05-11T07:36:21.543Z,998.96
2016-05-11T07:37:20.764Z,999.01
2016-05-11T07:38:20.751Z,998.97
2016-05-11T07:39:20.739Z,998.98
2016-05-11T07:40:20.695Z,999
2016-05-11T07:41:20.697Z,998.96
2016-05-11T07:42:20.809Z,998.95
2016-05-11T07:43:20.640Z,998.91
2016-05-11T07:44:20.627Z,998.92
2016-05-11T07:45:20.614Z,998.89
2016-05-11T07:46:20.601Z,998.9
2016-05-11T07:47:20.589Z,998.9
2016-05-11T07:48:20.559Z,998.9
2016-05-11T07:49:20.547Z,998.88
2016-05-11T07:50:20.564Z,998.92
2016-05-11T07:51:20.505Z,998.95
2016-05-11T07:52:20.538Z,998.91
2016-05-11T07:53:20.463Z,998.93
2016-05-11T07:54:20.467Z,998.93
2016-05-11T07:55:20.407Z,998.9
2016-05-11T07:56:20.410Z,998.95
2016-05-11T07:57:20.396Z,998.9
2016-05-11T07:58:20.492Z,998.89
2016-05-11T07:59:20.449Z,998.87
2016-05-11T08:00:20.358Z,998.86
2016-05-11T08:01:20.391Z,998.87
2016-05-11T08:02:20.676Z,998.85
2016-05-11T08:03:20.271Z,998.84
2016-05-11T08:04:20.274Z,998.84
2016-05-11T08:05:20.246Z,998.83
2016-05-11T08:06:20.233Z,998.81
2016-05-11T08:07:20.204Z,998.84
2016-05-11T08:08:20.192Z,998.82
2016-05-11T08:09:20.178Z,998.76
2016-05-11T08:10:20.259Z,998.84
2016-05-11T08:11:20.262Z,998.79
2016-05-11T08:12:20.406Z,998.8
2016-05-11T08:13:20.111Z,998.77
2016-05-11T08:14:20.504Z,998.82
2016-05-11T08:15:20.086Z,998.79
2016-05-11T08:16:20.103Z,998.8
2016-05-11T08:17:20.028Z,998.82
2016-05-11T08:18:20.000Z,998.81
2016-05-11T08:19:19.986Z,998.78
2016-05-11T08:20:20.036Z,998.77
2016-05-11T08:21:19.992Z,998.84
2016-05-11T08:22:19.947Z,998.82
2016-05-11T08:23:20.075Z,998.83
2016-05-11T08:24:19.891Z,998.78
2016-05-11T08:25:19.894Z,998.79
2016-05-11T08:26:19.865Z,998.79
2016-05-11T08:27:19.914Z,998.78
2016-05-11T08:28:19.855Z,998.74
2016-05-11T08:29:19.794Z,998.74
2016-05-11T08:30:20.172Z,998.66
2016-05-11T08:31:19.785Z,998.71
2016-05-11T08:32:19.756Z,998.66
2016-05-11T08:33:19.790Z,998.68
2016-05-11T08:34:20.090Z,998.67
2016-05-11T08:35:19.701Z,998.66
2016-05-11T08:36:19.876Z,998.67
2016-05-11T08:37:20.316Z,998.64
2016-05-11T08:38:19.725Z,998.65
2016-05-11T08:39:19.759Z,998.63
2016-05-11T08:40:19.621Z,998.64
2016-05-11T08:41:19.609Z,998.66
2016-05-11T08:42:19.736Z,998.67
2016-05-11T08:43:19.551Z,998.66
2016-05-11T08:44:19.664Z,998.65
2016-05-11T08:45:19.556Z,998.62
2016-05-11T08:46:19.512Z,998.59
2016-05-11T08:47:19.484Z,998.58
2016-05-11T08:48:19.455Z,998.58
2016-05-11T08:49:19.771Z,998.56
2016-05-11T08:50:19.492Z,998.54
2016-05-11T08:51:19.463Z,998.55
2016-05-11T08:52:19.481Z,998.52
2016-05-11T08:53:19.406Z,998.53
2016-05-11T08:54:19.377Z,998.5
2016-05-11T08:55:19.411Z,998.45
2016-05-11T08:56:19.836Z,998.45
2016-05-11T08:57:19.683Z,998.45
2016-05-11T08:58:19.326Z,998.39
2016-05-11T08:59:19.391Z,998.38
2016-05-11T09:00:19.847Z,998.37
2016-05-11T09:01:19.334Z,998.34
2016-05-11T09:02:19.258Z,998.38
2016-05-11T09:03:19.293Z,998.37
2016-05-11T09:04:19.233Z,998.36
2016-05-11T09:05:19.298Z,998.27
2016-05-11T09:06:19.675Z,998.28
2016-05-11T09:07:19.179Z,998.27
2016-05-11T09:08:19.228Z,998.27
2016-05-11T09:09:19.151Z,998.28
2016-05-11T09:10:19.202Z,998.31
2016-05-11T09:11:19.111Z,998.28
2016-05-11T09:12:19.067Z,998.28
2016-05-11T09:13:19.038Z,998.28
2016-05-11T09:14:19.134Z,998.27
2016-05-11T09:15:19.028Z,998.27
2016-05-11T09:16:18.999Z,998.23
2016-05-11T09:17:19.236Z,998.28
2016-05-11T09:18:19.286Z,998.3
2016-05-11T09:19:18.944Z,998.27
2016-05-11T09:20:18.917Z,998.23
2016-05-11T09:21:19.247Z,998.21
2016-05-11T09:22:18.922Z,998.23
2016-05-11T09:23:18.987Z,998.21
2016-05-11T09:24:18.833Z,998.23
2016-05-11T09:25:18.914Z,998.17
2016-05-11T09:26:18.808Z,998.19
2016-05-11T09:27:18.810Z,998.23
2016-05-11T09:28:18.766Z,998.22
2016-05-11T09:29:18.785Z,998.24
2016-05-11T09:30:18.755Z,998.22
2016-05-11T09:31:18.758Z,998.21
2016-05-11T09:32:18.730Z,998.21
2016-05-11T09:33:18.685Z,998.2
2016-05-11T09:34:18.688Z,998.15
2016-05-11T09:35:18.644Z,998.13
2016-05-11T09:36:18.662Z,998.18
2016-05-11T09:37:18.649Z,998.2
2016-05-11T09:38:18.620Z,998.12
2016-05-11T09:39:18.593Z,998.11
2016-05-11T09:40:19.315Z,998.13
2016-05-11T09:41:18.535Z,998.12
2016-05-11T09:42:18.507Z,998.11
2016-05-11T09:43:18.540Z,998.11
2016-05-11T09:44:18.528Z,998.08
2016-05-11T09:45:18.467Z,998.06
2016-05-11T09:46:18.501Z,998.11
2016-05-11T09:47:18.926Z,998.13
2016-05-11T09:48:18.492Z,998.17
2016-05-11T09:49:18.572Z,998.15
2016-05-11T09:50:18.419Z,998.12
2016-05-11T09:51:18.859Z,998.06
2016-05-11T09:52:18.347Z,998.08
2016-05-11T09:53:18.349Z,998.07
2016-05-11T09:54:18.320Z,998.06
2016-05-11T09:55:18.307Z,998.1
2016-05-11T09:56:18.310Z,998.02
2016-05-11T09:57:18.485Z,998.04
2016-05-11T09:58:18.269Z,997.98
2016-05-11T09:59:18.411Z,998.04
2016-05-11T10:00:19.133Z,998.02
2016-05-11T10:01:18.213Z,998.01
2016-05-11T10:02:18.201Z,998.02
2016-05-11T10:03:18.172Z,997.99
2016-05-11T10:04:18.143Z,997.99
2016-05-11T10:05:18.163Z,997.92
2016-05-11T10:06:18.134Z,998
2016-05-11T10:07:18.074Z,997.99
2016-05-11T10:08:18.093Z,997.97
2016-05-11T10:09:18.063Z,997.93
2016-05-11T10:10:18.066Z,997.95
2016-05-11T10:11:19.116Z,997.95
2016-05-11T10:12:18.150Z,997.94
2016-05-11T10:13:17.996Z,997.89
2016-05-11T10:14:17.999Z,997.87
2016-05-11T10:15:17.954Z,997.84
2016-05-11T10:16:17.957Z,997.85
2016-05-11T10:17:17.914Z,997.91
2016-05-11T10:18:17.916Z,997.88
2016-05-11T10:19:17.920Z,997.8
2016-05-11T10:20:17.875Z,997.85
2016-05-11T10:21:17.862Z,997.81
2016-05-11T10:22:18.223Z,997.85
2016-05-11T10:23:17.882Z,997.84
2016-05-11T10:24:17.808Z,997.79
2016-05-11T10:25:17.810Z,997.76
2016-05-11T10:26:17.781Z,997.78
2016-05-11T10:27:17.769Z,997.75
2016-05-11T10:28:18.052Z,997.77
2016-05-11T10:29:17.836Z,997.78
2016-05-11T10:30:17.714Z,997.77
2016-05-11T10:32:55.158Z,997.76
2016-05-11T10:33:55.160Z,997.73
2016-05-11T10:34:55.131Z,997.72
2016-05-11T10:35:55.118Z,997.69
2016-05-11T10:36:55.075Z,997.71
2016-05-11T10:37:55.045Z,997.71
2016-05-11T10:38:55.408Z,997.69
2016-05-11T10:39:55.019Z,997.63
2016-05-11T10:40:55.069Z,997.66
2016-05-11T10:41:55.010Z,997.67
2016-05-11T10:42:54.997Z,997.63
2016-05-11T10:43:54.968Z,997.7
2016-05-11T10:44:54.986Z,997.64
2016-05-11T10:45:54.957Z,997.65
2016-05-11T10:46:54.913Z,997.62
2016-05-11T10:47:54.900Z,997.59
2016-05-11T10:48:54.887Z,997.61
2016-05-11T10:49:54.875Z,997.57
2016-05-11T10:50:54.862Z,997.58
2016-05-11T10:51:55.239Z,997.52
2016-05-11T10:52:54.836Z,997.56
2016-05-11T10:53:55.636Z,997.57
2016-05-11T10:54:54.795Z,997.57
2016-05-11T10:55:54.781Z,997.6
2016-05-11T10:56:54.753Z,997.56
2016-05-11T10:57:54.739Z,997.6
2016-05-11T10:58:54.711Z,997.56
2016-05-11T10:59:54.714Z,997.49
2016-05-11T11:00:54.670Z,997.51
2016-05-11T11:01:54.735Z,997.58
2016-05-11T11:02:54.675Z,997.48
2016-05-11T11:03:54.647Z,997.45
2016-05-11T11:04:54.650Z,997.44
2016-05-11T11:05:54.605Z,997.47
2016-05-11T11:06:54.577Z,997.37
2016-05-11T11:07:54.595Z,997.34
2016-05-11T11:08:54.551Z,997.31
2016-05-11T11:09:54.507Z,997.37
2016-05-11T11:10:54.509Z,997.26
2016-05-11T11:11:54.825Z,997.25
2016-05-11T11:12:54.483Z,997.23
2016-05-11T11:13:54.470Z,997.21
2016-05-11T11:14:54.458Z,997.26
2016-05-11T11:15:54.429Z,997.25
2016-05-11T11:16:54.431Z,997.24
2016-05-11T11:17:54.403Z,997.19
2016-05-11T11:18:54.391Z,997.24
2016-05-11T11:19:54.393Z,997.24
2016-05-11T11:20:54.723Z,997.25
2016-05-11T11:21:54.352Z,997.26
2016-05-11T11:22:54.417Z,997.26
2016-05-11T11:23:54.592Z,997.21
2016-05-11T11:24:54.297Z,997.19
2016-05-11T11:25:54.268Z,997.18
2016-05-11T11:26:54.287Z,997.13
2016-05-11T11:27:54.242Z,997.15
2016-05-11T11:28:54.214Z,997.18
2016-05-11T11:29:54.451Z,997.19
2016-05-11T11:30:54.203Z,997.16
2016-05-11T11:31:54.378Z,997.13
2016-05-11T11:32:54.162Z,997.15
2016-05-11T11:33:54.165Z,997.16
2016-05-11T11:34:54.371Z,997.13
2016-05-11T11:35:54.202Z,997.17
2016-05-11T11:36:54.094Z,997.19
2016-05-11T11:37:54.066Z,997.18
2016-05-11T11:38:54.053Z,997.18
2016-05-11T11:39:54.040Z,997.16
2016-05-11T11:40:54.027Z,997.17
2016-05-11T11:41:54.061Z,997.15
2016-05-11T11:42:53.971Z,997.14
2016-05-11T11:43:53.988Z,997.12
2016-05-11T11:44:53.944Z,997.14
2016-05-11T11:45:54.322Z,997.12
2016-05-11T11:46:53.935Z,997.12
2016-05-11T11:47:53.906Z,997.17
2016-05-11T11:48:53.909Z,997.14
2016-05-11T11:49:53.880Z,997.1
2016-05-11T11:50:53.851Z,997.13
2016-05-11T11:51:54.072Z,997.21
2016-05-11T11:52:53.810Z,997.09
2016-05-11T11:53:53.828Z,997.08
2016-05-11T11:54:53.784Z,997.14
2016-05-11T11:55:53.770Z,997.07
2016-05-11T11:56:53.759Z,997.05
2016-05-11T11:57:53.745Z,997.08
2016-05-11T11:58:53.763Z,997.07
2016-05-11T11:59:53.814Z,997.06
2016-05-11T12:00:53.754Z,997.01
2016-05-11T12:01:53.694Z,997
2016-05-11T12:02:53.664Z,996.93
2016-05-11T12:03:53.667Z,996.97
2016-05-11T12:04:53.623Z,996.99
2016-05-11T12:05:53.610Z,996.97
2016-05-11T12:06:53.722Z,996.99
2016-05-11T12:07:53.585Z,997.04
2016-05-11T12:08:53.556Z,997
2016-05-11T12:09:53.590Z,996.98
2016-05-11T12:10:53.514Z,997
2016-05-11T12:11:53.517Z,997
2016-05-11T12:12:53.505Z,996.93
2016-05-11T12:13:53.491Z,996.98
2016-05-11T12:14:53.479Z,996.9
2016-05-11T12:15:54.043Z,996.87
2016-05-11T12:16:53.437Z,996.82
2016-05-11T12:17:53.424Z,996.78
2016-05-11T12:18:53.410Z,996.77
2016-05-11T12:19:53.382Z,996.7
2016-05-11T12:20:53.370Z,996.64
2016-05-11T12:21:53.373Z,996.69
2016-05-11T12:22:53.546Z,996.71
2016-05-11T12:23:53.331Z,996.7
2016-05-11T12:24:53.318Z,996.71
2016-05-11T12:25:53.320Z,996.73
2016-05-11T12:26:53.682Z,996.68
2016-05-11T12:27:53.264Z,996.66
2016-05-11T12:28:53.282Z,996.66
2016-05-11T12:29:53.300Z,996.75
2016-05-11T12:30:53.240Z,996.69
2016-05-11T12:31:53.508Z,996.71
2016-05-11T12:32:53.448Z,996.68
2016-05-11T12:33:53.186Z,996.68
2016-05-11T12:34:53.172Z,996.65
2016-05-11T12:35:53.160Z,996.62
2016-05-11T12:36:53.147Z,996.58
2016-05-11T12:37:53.253Z,996.46
2016-05-11T12:38:53.178Z,996.53
2016-05-11T12:39:53.462Z,996.56
2016-05-11T12:40:53.247Z,996.59
2016-05-11T12:41:53.328Z,996.62
2016-05-11T12:42:53.314Z,996.57
2016-05-11T12:43:53.303Z,996.51
2016-05-11T12:44:53.291Z,996.54